1st December 2019 | Otago, New Zealand

The Pioneer fuelled by Nutri-Grain (2019)

Stage 2 - Alexandra to Alexandra Teams

Pos Team Name Team Time Points Category (Pos)
1 (#110) GIANT AUSTRALIA OFF-ROAD TEAM 04:33:35 3 Open Men (1)
2 (#128) ONYA BIKE NORTH OTAGO 04:36:52 7 Open Men (2)
3 (#148) WINGER HAMILTON 04:43:50 11 Open Men (3)
4 (#151) MARATHONMTB.COM 04:52:10 15 Open Men (4)
5 (#108) CYCLIST MAGAZINE 04:58:20 19 Open Men (5)
6 (#119) MAAP SHIMANO 05:03:41 23 Open Men (6)
7 (#126) MCMILLAN CIVIL 05:04:17 27 Open Men (7)
8 (#133) SPECIALISED STRUCTURES 05:07:37 31 Open Men (8)
9 (#136) GREENMONKEY 05:11:50 35 Open Men (9)
10 (#336) TEAM JOJO 05:14:52 39 Mixed (1)
11 (#106) CYCLE WORLD RACING 05:17:11 43 Open Men (10)
12 (#429) OPTIMAL PERFORMANCE 05:17:45 47 Masters Men (1)
13 (#630) TERREACTIVE IT SECURITY 05:22:00 51 Grand Masters Men (1)
14 (#333) SRAM MTOSS 05:28:39 55 Mixed (2)
15 (#326) TEAM NEW WORLD-PIVOT 05:30:11 59 Mixed (3)
16 (#410) CYCLE OBSESSION 05:34:57 65 Masters Men (2)
17 (#105) CIRCUIT ASPHALT 05:35:00 65 Open Men (11)
18 (#203) STONEWOOD HOMES 05:35:30 71 Open Women (1)
19 (#412) CYCLINGTIPS.COM 05:41:26 75 Masters Men (3)
20 (#440) OFF THE CHAIN 05:42:04 79 Masters Men (4)
21 (#633) THE HUB CYCLE CENTRE - RUNNING OUT OF SUMMERS 05:42:05 83 Grand Masters Men (2)
22 (#124) NEW WORLD ST MARTINS 05:43:20 87 Open Men (12)
23 (#121) MORTGAGE ME NZ CYCLING PROJECT 05:47:07 91 Open Men (13)
24 (#134) SQUAREONE PHYSIO 05:47:16 95 Open Men (14)
25 (#130) PURE SPORTS NUTRITION 05:54:02 101 Open Men (15)
26 (#638) VELO WORKSHOP 05:54:37 105 Grand Masters Men (3)
27 (#437) SILVERSKYCYCLE 05:54:38 109 Masters Men (5)
28 (#608) CYCLEWAYS 05:54:40 113 Grand Masters Men (4)
29 (#137) TEAM ELEVATE 05:54:43 117 Open Men (16)
30 (#436) SHOW NO WEAKNESS 05:55:40 121 Masters Men (6)
31 (#620) RIDETECHNICS 05:55:58 125 Grand Masters Men (5)
32 (#434) SHAUN & MATT - AKA SHAT 05:56:35 129 Masters Men (7)
33 (#323) SHIMANO PUSHYS CANNONDALE 05:56:44 133 Mixed (4)
34 (#127) ONE HIT WONDERS 05:57:59 137 Open Men (17)
35 (#116) LANKY N RANKY 05:58:10 141 Open Men (18)
36 (#413) DAIKIN THERMAL SOLUTIONS 05:58:50 145 Masters Men (8)
37 (#411) STICKY BOTTLE 06:00:26 149 Masters Men (9)
38 (#317) MTBVL ADVENTURES 06:00:50 153 Mixed (5)
39 (#444) TEAM SMIDDY 06:02:56 157 Masters Men (10)
40 (#102) BLUBLOKES 06:03:20 161 Open Men (19)
41 (#101) FLEET CYCLES 06:03:21 165 Open Men (20)
42 (#118) LES MORREAUX 06:05:57 169 Open Men (21)
43 (#335) GREENMONKEY/PIVOT CYCLES 06:07:36 173 Mixed (6)
44 (#452) VEGAS BOYS 06:12:24 177 Masters Men (11)
45 (#202) NEW WORLD ST MARTINS WOMEN 06:14:24 181 Open Women (2)
46 (#310) EQUIPE IRIS-BOB CYCLO 06:15:15 185 Mixed (7)
47 (#414) DUSTYDAZE WHANGAREI 06:17:25 189 Masters Men (12)
48 (#107) CYCLETIME HAMILTON 06:17:26 193 Open Men (22)
49 (#305) BIKETO-YUXI TEAM 06:17:45 197 Mixed (8)
50 (#111) GOOI MIELIES 06:18:25 201 Open Men (23)
51 (#149) THE PIONEERS 06:20:56 205 Open Men (24)
52 (#138) TEAM PINNACLE 06:23:30 209 Open Men (25)
53 (#141) TEDS & FLASH 06:23:48 213 Open Men (26)
54 (#427) OAMARU HONDA 06:23:58 217 Masters Men (13)
55 (#503) EARNSCLEUGH EXPRESS 06:28:19 221 Masters Women (1)
56 (#139) TEAM VELO-REICHMUTH.CH 06:30:54 225 Open Men (27)
57 (#424) MEOGP RACING TEAM 06:35:26 229 Masters Men (14)
58 (#123) NBRCC 06:36:40 235 Open Men (28)
59 (#320) REMARKABLE PHYSIOS 06:38:29 239 Mixed (9)
60 (#104) CALCONASSOS IBIZA 2 06:42:24 243 Open Men (29)
61 (#143) THE HANDLEBAR DADS - MOVEMBER NZ 06:44:14 247 Open Men (30)
62 (#430) OUT OF OFFICE 06:44:15 251 Masters Men (15)
63 (#114) KIESER AUSTRALIA 06:46:19 255 Open Men (31)
64 (#201) TIKI WINE & VINEYARDS 06:47:33 261 Open Women (3)
65 (#601) 1E SIBA MTB TEAM 06:48:36 265 Grand Masters Men (6)
66 (#146) TWO WATTS 06:49:25 269 Open Men (32)
67 (#618) RANGI ROCKETS 06:52:16 273 Grand Masters Men (7)
68 (#640) LES CROQUES MONSIEURS 06:59:03 277 Grand Masters Men (8)
69 (#449) THE VIKINGS 06:59:39 281 Masters Men (16)
70 (#147) WRBIKES 07:01:42 285 Open Men (33)
71 (#314) LIV AND JOE 07:02:00 289 Mixed (10)
72 (#603) 2DEGREES 07:04:05 293 Grand Masters Men (9)
73 (#315) LYNX REAL ESTATE 07:04:14 297 Mixed (11)
74 (#405) BLACKYARD RACING - STRAYA 07:04:37 301 Masters Men (17)
75 (#422) KEA - EAGLE 07:06:14 305 Masters Men (18)
76 (#135) TARANAKI HARDTAILS 07:07:58 309 Open Men (34)
77 (#150) TEAM GREFIN 07:09:44 315 Open Men (35)
78 (#316) MOUNTAIN SNAILS 07:11:01 319 Mixed (12)
79 (#454) WAZZA DUO 07:11:23 323 Masters Men (19)
80 (#301) AKSA TEAM 07:11:31 327 Mixed (13)
81 (#450) THE WOLFPACK 07:15:09 331 Masters Men (20)
82 (#302) ALREADY KNOW BETTER! 07:16:07 335 Mixed (14)
83 (#637) TWO SOUTHERN MEN 07:16:54 339 Grand Masters Men (10)
84 (#140) TEAM VICTORY VETS 07:20:29 343 Open Men (36)
85 (#609) DEFEND FIRE PROTECTION 07:21:40 347 Mixed (15)
86 (#607) CRY N' FEAR 07:22:36 351 Grand Masters Men (11)
87 (#508) TEAM CYCLEWAYS 07:23:28 355 Masters Women (2)
88 (#318) PADDY & CO 07:25:09 361 Mixed (16)
89 (#507) OUTLAW SISTERS 07:26:11 365 Masters Women (3)
90 (#451) TWO WEAK LINKS 07:27:11 369 Masters Men (21)
91 (#443) TEAM RACK 'N' STACK 07:29:51 373 Masters Men (22)
92 (#621) SEEDED WHEELS 07:31:43 377 Grand Masters Men (12)
93 (#433) RPM 07:31:47 381 Masters Men (23)
94 (#447) THE BENDS 07:31:58 385 Masters Men (24)
95 (#408) CALSONASSOS IBIZA 1 07:35:53 389 Masters Men (25)
96 (#313) KISIELS@50 07:37:02 395 Mixed (17)
97 (#610) DEUSA 07:39:56 401 Grand Masters Men (13)
98 (#428) OLD BOYS OUT OF CONTROL 07:42:53 405 Masters Men (26)
99 (#426) NEW WORLD KUMEU 07:43:23 409 Masters Men (27)
100 (#445) TERRA FIRMA SKODA 07:46:22 413 Masters Men (28)
101 (#625) TEAM BIG RIDE 07:47:43 417 Grand Masters Men (14)
102 (#303) AN EPIC COMBO 07:48:20 421 Mixed (18)
103 (#438) SINOGULF 07:49:27 425 Masters Men (29)
104 (#417) HILLBILLYS 07:53:08 429 Masters Men (30)
105 (#407) CALCONASSOS IBIZA 3 07:54:22 433 Masters Men (31)
106 (#446) THE 2 AMIGOS 07:56:17 437 Masters Men (32)
107 (#330) CYCLE OBSESSION - MIXED 07:56:30 441 Mixed (19)
108 (#641) TWO OLD FOR THIS MATE 07:59:30 447 Grand Masters Men (15)
109 (#629) TEAM: NUTRI-GRAIN 08:00:24 451 Grand Masters Men (16)
110 (#419) ICE 08:00:49 455 Masters Men (33)
111 (#145) THE OTHER GUYS 08:01:55 459 Open Men (37)
112 (#402) 4 STRONG LEGS 08:04:40 465 Masters Men (34)
113 (#401) 2 BROKE BLOKES 08:04:47 469 Masters Men (35)
114 (#122) GALILEO RISK 08:07:09 475 Open Men (38)
115 (#328) THE FREE WHEELERS 08:07:20 479 Mixed (20)
116 (#321) SERPANTIN 08:07:39 483 Mixed (21)
117 (#505) I SHOP NEW WORLD 08:07:50 487 Masters Women (4)
118 (#604) 86 400 08:10:43 491 Grand Masters Men (17)
119 (#319) RED ALERT 08:12:30 497 Mixed (22)
120 (#420) INOSYM 08:13:43 501 Masters Men (36)
121 (#406) BOTH SIDES OF THE DITCH 08:15:12 505 Masters Men (37)
122 (#125) NOT HERE TO F**K SPIDERS 08:18:07 509 Open Men (39)
123 (#113) KELLYS CAFE & BAR 08:25:31 513 Open Men (40)
124 (#129) PROJECT THREE SIXTY LIMITED 08:29:13 517 Open Men (41)
125 (#306) BLACKYARD RACING - SI 08:30:02 521 Mixed (23)
126 (#117) LEGEND CHX 08:33:22 527 Open Men (42)
127 (#502) DEFEND FIRE PROTECTION GIRLS ON FIRE 08:33:47 531 Masters Women (5)
128 (#456) ZOOMEN 08:34:06 535 Masters Men (38)
129 (#623) SO FAR BUT SO CLOSE 08:43:32 539 Grand Masters Men (18)
130 (#329) THE WHEELS 08:44:37 543 Mixed (24)
131 (#634) THE WHIPPETS 08:46:03 547 Grand Masters Men (19)
132 (#409) CALSONASSOS IBIZA 4 08:46:30 551 Masters Men (39)
133 (#617) OH REALLY 08:49:11 555 Grand Masters Men (20)
134 (#606) AXIS HOUSE CYCLE 4 CANSA 08:49:48 559 Grand Masters Men (21)
135 (#626) TEAM DNR 08:49:50 563 Grand Masters Men (22)
136 (#307) BLACKYARD RACING NI 08:53:06 569 Mixed (25)
137 (#622) SMILES FOR THE PACIFIC 08:53:25 573 Grand Masters Men (23)
138 (#605) AGAINST ALL ODDS 08:56:11 577 Grand Masters Men (24)
139 (#416) GLOBALID 08:56:36 581 Masters Men (40)
140 (#441) TEAM DANÆS AHON 08:58:36 587 Masters Men (41)
141 (#612) EPICURE 09:01:34 591 Grand Masters Men (25)
142 (#304) JACQUES & GEORGIA 09:02:45 597 Mixed (26)
143 (#628) TEAM X 09:02:46 597 Grand Masters Men (26)
144 (#131) RATHOLE RACING 09:03:26 603 Open Men (43)
145 (#624) START SLOW 09:03:40 607 Grand Masters Men (27)
146 (#423) LUP & HONG 09:05:59 611 Masters Men (42)
147 (#602) 2 AUSSIE PADDLERS 09:06:31 615 Grand Masters Men (28)
148 (#324) SUNKONGS 09:08:58 619 Mixed (27)
149 (#501) CABLE LOGGING GERALDINE NZ 09:10:05 623 Masters Women (6)
150 (#639) WELL VENTECH 09:11:45 629 Grand Masters Men (29)
151 (#325) TEAM EDGAR 09:15:41 633 Mixed (28)
152 (#453) WALTER AND STATLER 09:24:24 639 Masters Men (43)
153 (#627) TEAM MAMMOTH 09:26:46 520 Grand Masters Men (30)
154 (#455) WINE DINE FINISH LINE 09:28:35 645 Masters Men (44)
155 (#635) TRYING AGAIN 09:29:26 649 Grand Masters Men (31)
156 (#332) WESTRA-CHOO 09:44:51 653 Mixed (29)
157 (#308) COLORADO CRUISERS 10:10:17 659 Mixed (30)
158 (#115) LA PLATA PEDALERS 10:10:17 659 Open Men (44)
- (#504) GREG PARRÆS GIRL TORQUE Masters Women
- (#311) FASTLANE 2 Mixed
- (#415) FIZO CYCLING Masters Men
- (#613) GIORGI EXCLUSIVE HOMES Grand Masters Men
- (#614) GIVE IT HORNS Grand Masters Men
- (#418) I CLIMB WELL FOR MY WEIGHT Masters Men
- (#421) ITS CHEAPER THAN THERAPY Masters Men
- (#615) JAM Grand Masters Men
- (#103) BLUE CYCLES Open Men
- (#144) THE HIPPY & THE GYPPY Open Men
- (#327) TEAM PHENOMENAL HOPE Mixed
- (#442) TEAM KT-26 Masters Men
- (#631) THE BARNES GROUP RACING SNAKES Grand Masters Men
- (#632) THE BEAVERTOWN BOYS Grand Masters Men
- (#142) THAT'S THE RHYTHM Open Men
- (#439) SYED & JUAN MTB TEAM Masters Men
- (#435) SHIMANO Masters Men
- (#432) RIVET RACING Masters Men
- (#506) NORTH TO SOUTH Masters Women